Helene — V2BK5 — position and weather

sailwx.info

Track history (hours):
 
Tides and Currents Weather Stations Pressure Air Temp Water Temp Dewpoint Dewpoint Depression Visibility Wind Speed Wind Dir Waves Ship Positions

Helene

Last reported at 2015-May-23 10:33 UTC. Time now 2015-May-23 13:22 UTC.
Position N 36°04' W 005°14'.

Length 140 m; draft 8.9 m.

Type: Ship (hazmat cat A). MMSI: 304846000.

Date/timePositionNaut miles runAvg speedWind from/ knotsBaromVisibWave heightAir tempDewpointWater temp
2015-May-23 10:33N 36°04' W 005°14'1010.1
2015-May-23 09:33N 36°08' W 005°25'1 0.6
2015-May-23 07:27N 36°08' W 005°26'0 0.0
2015-May-23 06:06N 36°08' W 005°26'0 0.0
2015-May-23 05:30N 36°08' W 005°26'0 0.0
2015-May-23 04:21N 36°08' W 005°26'0 0.0
2015-May-23 03:24N 36°08' W 005°26'0 0.0
2015-May-23 02:30N 36°08' W 005°26'0 0.0
2015-May-23 01:32N 36°08' W 005°26'0 0.0
2015-May-23 00:08N 36°08' W 005°26'0 0.0
2015-May-22 23:26N 36°08' W 005°26'0 0.0
2015-May-22 22:26N 36°08' W 005°26'0 0.0
2015-May-22 21:11N 36°08' W 005°26'0 0.0
2015-May-22 20:20N 36°08' W 005°26'0 0.0
2015-May-22 19:26N 36°08' W 005°26'0 0.0
2015-May-22 18:26N 36°08' W 005°26'0 0.0
2015-May-22 16:29N 36°08' W 005°26'0 0.0
2015-May-22 12:05N 36°08' W 005°26'2 0.4
2015-May-22 07:16N 36°10' W 005°26'0 0.0
2015-May-22 06:16N 36°10' W 005°26'0 0.0
2015-May-22 05:10N 36°10' W 005°26'0 0.0
2015-May-22 04:16N 36°10' W 005°26'0 0.0
2015-May-22 03:22N 36°10' W 005°26'0 0.0
2015-May-22 02:28N 36°10' W 005°26'0 0.0
2015-May-22 01:28N 36°10' W 005°26'0 0.0
2015-May-22 00:28N 36°10' W 005°26'0 0.0
2015-May-21 23:28N 36°10' W 005°26'0 0.0
2015-May-21 22:28N 36°10' W 005°26'0 0.0
2015-May-21 21:10N 36°10' W 005°26'0 0.0
2015-May-21 20:10N 36°10' W 005°26'0 0.0
2015-May-21 19:22N 36°10' W 005°26'0 0.0
2015-May-21 13:10N 36°10' W 005°26'0 0.0
2015-May-21 12:28N 36°10' W 005°26'0 0.0
2015-May-21 11:16N 36°10' W 005°26'0 0.0
2015-May-21 09:22N 36°10' W 005°26'0 0.0
2015-May-21 08:28N 36°10' W 005°26'0 0.0
2015-May-21 05:16N 36°10' W 005°26'0 0.0
2015-May-21 04:04N 36°10' W 005°26'0 0.1
2015-May-21 03:10N 36°10' W 005°26'0 0.0
2015-May-21 02:28N 36°10' W 005°26'0 0.0
2015-May-21 00:22N 36°10' W 005°26'0 0.0
2015-May-20 23:28N 36°10' W 005°26'0 0.0
2015-May-20 22:28N 36°10' W 005°26'0 0.0
2015-May-20 21:22N 36°10' W 005°26'0 0.0
2015-May-20 20:04N 36°10' W 005°26'0 0.0
2015-May-20 17:04N 36°10' W 005°26'0 0.0
2015-May-20 15:28N 36°10' W 005°26'0 0.0
2015-May-20 14:22N 36°10' W 005°26'0 0.0
2015-May-20 13:28N 36°10' W 005°26'0 0.0
2015-May-20 12:22N 36°10' W 005°26'0 0.0
2015-May-20 10:28N 36°10' W 005°26'0 0.1
2015-May-20 09:28N 36°10' W 005°26'0 0.1
2015-May-20 08:10N 36°10' W 005°25'0 0.0
2015-May-20 06:10N 36°10' W 005°25'0 0.1
2015-May-20 04:28N 36°10' W 005°25'0 0.1
2015-May-20 02:28N 36°10' W 005°25'0 0.0
2015-May-20 01:28N 36°10' W 005°25'0 0.0
2015-May-19 22:16N 36°10' W 005°25'0 0.1
2015-May-19 21:28N 36°10' W 005°25'0 0.0
2015-May-19 20:28N 36°10' W 005°25'0 0.0
2015-May-19 19:10N 36°10' W 005°25'0 0.0
2015-May-19 17:29N 36°10' W 005°25'3 3.3
2015-May-19 16:33N 36°07' W 005°23'6 5.8
2015-May-19 15:33N 36°05' W 005°17'2 2.3
2015-May-19 14:34N 36°05' W 005°14'10210.9
2015-May-19 05:15N 36°10' W 003°08'912.4
2015-May-19 04:30N 36°10' W 002°57'1212.2
2015-May-19 03:33N 36°08' W 002°42'1312.1
2015-May-19 02:30N 36°06' W 002°27'1111.9
2015-May-19 01:33N 36°04' W 002°13'1211.6
2015-May-19 00:32N 36°02' W 001°59'2211.2
2015-May-18 22:33N 35°58' W 001°32'2411.1
2015-May-18 20:24N 35°55' W 001°03'1010.9
2015-May-18 19:29N 35°53' W 000°51'1111.5
2015-May-18 18:33N 35°51' W 000°38'8 7.6
2015-May-18 17:30N 35°43' W 000°38'0 0.0
2015-May-18 16:34N 35°43' W 000°38'0 0.0
2015-May-18 15:34N 35°43' W 000°38'0 0.0
2015-May-18 14:33N 35°43' W 000°38'0 0.0
2015-May-18 13:33N 35°43' W 000°38'0 0.0
2015-May-18 00:23N 35°43' W 000°38'0 0.0
2015-May-17 23:30N 35°43' W 000°38'0 0.0
2015-May-17 22:28N 35°43' W 000°38'0 0.0
2015-May-17 21:28N 35°43' W 000°38'0 0.0
2015-May-17 20:28N 35°43' W 000°38'0 0.0
2015-May-17 19:04N 35°43' W 000°38'0 0.0
2015-May-17 17:22N 35°43' W 000°38'0 0.0
2015-May-17 16:34N 35°43' W 000°38'0 0.0
2015-May-17 15:09N 35°43' W 000°38'0 0.0
2015-May-17 12:22N 35°43' W 000°38'0 0.0
2015-May-17 09:28N 35°43' W 000°38'0 0.0
2015-May-17 06:10N 35°43' W 000°38'0 0.0
2015-May-16 01:10N 35°43' W 000°38'0 0.0
2015-May-16 00:22N 35°43' W 000°38'0 0.0
2015-May-15 23:28N 35°43' W 000°38'0 0.0
2015-May-15 21:28N 35°43' W 000°38'0 0.0
2015-May-15 19:22N 35°43' W 000°38'0 0.0
2015-May-15 18:16N 35°43' W 000°38'0 0.0
2015-May-14 23:33N 35°43' W 000°38'0 0.0
2015-May-14 22:29N 35°43' W 000°38'0 0.0
2015-May-14 21:33N 35°43' W 000°38'0 0.0
2015-May-14 20:28N 35°43' W 000°38'0 0.0
2015-May-14 19:34N 35°43' W 000°38'0 0.0
2015-May-14 18:31N 35°43' W 000°38'0 0.0
2015-May-14 17:33N 35°43' W 000°38'0 0.0
2015-May-14 16:34N 35°43' W 000°38'0 0.0
2015-May-14 15:33N 35°43' W 000°38'0 0.0
2015-May-14 14:33N 35°43' W 000°38'0 0.0
2015-May-14 13:33N 35°43' W 000°38'0 0.0
2015-May-14 12:33N 35°43' W 000°38'0 0.0
2015-May-14 11:34N 35°43' W 000°38'0 0.0
2015-May-14 10:33N 35°43' W 000°38'0 0.0
2015-May-14 09:04N 35°43' W 000°38'0 0.0
2015-May-14 07:34N 35°43' W 000°38'0 0.0
2015-May-14 06:33N 35°43' W 000°38'0 0.0
2015-May-14 05:34N 35°43' W 000°38'0 0.0
2015-May-14 04:34N 35°43' W 000°38'0 0.0
2015-May-14 03:33N 35°43' W 000°38'0 0.0
2015-May-14 02:30N 35°43' W 000°38'0 0.0
2015-May-14 01:30N 35°43' W 000°38'0 0.0
2015-May-14 00:34N 35°43' W 000°38'0 0.0
2015-May-13 23:33N 35°43' W 000°38'0 0.0
2015-May-13 22:33N 35°43' W 000°38'0 0.0
2015-May-13 21:30N 35°43' W 000°38'0 0.0
2015-May-13 20:34N 35°43' W 000°38'0 0.0
2015-May-13 19:33N 35°43' W 000°38'0 0.0
2015-May-13 18:33N 35°43' W 000°38'0 0.0
2015-May-13 17:33N 35°43' W 000°38'0 0.0
2015-May-13 16:33N 35°43' W 000°38'0 0.0
2015-May-13 15:34N 35°43' W 000°38'0 0.0
2015-May-13 14:33N 35°43' W 000°38'0 0.0
2015-May-13 13:30N 35°43' W 000°38'0 0.0
2015-May-13 12:28N 35°43' W 000°38'0 0.0
2015-May-13 11:34N 35°43' W 000°38'0 0.0
2015-May-13 10:33N 35°43' W 000°38'  
Track history (hours):
 
Tides and Currents Weather Stations Pressure Air Temp Water Temp Dewpoint Dewpoint Depression Visibility Wind Speed Wind Dir Waves Ship Positions

Helene

Last reported at 2015-May-23 10:33 UTC. Time now 2015-May-23 13:22 UTC.
Position N 36°04' W 005°14'.

Length 140 m; draft 8.9 m.

Type: Ship (hazmat cat A). MMSI: 304846000.

Date/timePositionNaut miles runAvg speedWind from/ knotsBaromVisibWave heightAir tempDewpointWater temp
2015-May-23 10:33N 36°04' W 005°14'1010.1
2015-May-23 09:33N 36°08' W 005°25'1 0.6
2015-May-23 07:27N 36°08' W 005°26'0 0.0
2015-May-23 06:06N 36°08' W 005°26'0 0.0
2015-May-23 05:30N 36°08' W 005°26'0 0.0
2015-May-23 04:21N 36°08' W 005°26'0 0.0
2015-May-23 03:24N 36°08' W 005°26'0 0.0
2015-May-23 02:30N 36°08' W 005°26'0 0.0
2015-May-23 01:32N 36°08' W 005°26'0 0.0
2015-May-23 00:08N 36°08' W 005°26'0 0.0
2015-May-22 23:26N 36°08' W 005°26'0 0.0
2015-May-22 22:26N 36°08' W 005°26'0 0.0
2015-May-22 21:11N 36°08' W 005°26'0 0.0
2015-May-22 20:20N 36°08' W 005°26'0 0.0
2015-May-22 19:26N 36°08' W 005°26'0 0.0
2015-May-22 18:26N 36°08' W 005°26'0 0.0
2015-May-22 16:29N 36°08' W 005°26'0 0.0
2015-May-22 12:05N 36°08' W 005°26'2 0.4
2015-May-22 07:16N 36°10' W 005°26'0 0.0
2015-May-22 06:16N 36°10' W 005°26'0 0.0
2015-May-22 05:10N 36°10' W 005°26'0 0.0
2015-May-22 04:16N 36°10' W 005°26'0 0.0
2015-May-22 03:22N 36°10' W 005°26'0 0.0
2015-May-22 02:28N 36°10' W 005°26'0 0.0
2015-May-22 01:28N 36°10' W 005°26'0 0.0
2015-May-22 00:28N 36°10' W 005°26'0 0.0
2015-May-21 23:28N 36°10' W 005°26'0 0.0
2015-May-21 22:28N 36°10' W 005°26'0 0.0
2015-May-21 21:10N 36°10' W 005°26'0 0.0
2015-May-21 20:10N 36°10' W 005°26'0 0.0
2015-May-21 19:22N 36°10' W 005°26'0 0.0
2015-May-21 13:10N 36°10' W 005°26'0 0.0
2015-May-21 12:28N 36°10' W 005°26'0 0.0
2015-May-21 11:16N 36°10' W 005°26'0 0.0
2015-May-21 09:22N 36°10' W 005°26'0 0.0
2015-May-21 08:28N 36°10' W 005°26'0 0.0
2015-May-21 05:16N 36°10' W 005°26'0 0.0
2015-May-21 04:04N 36°10' W 005°26'0 0.1
2015-May-21 03:10N 36°10' W 005°26'0 0.0
2015-May-21 02:28N 36°10' W 005°26'0 0.0
2015-May-21 00:22N 36°10' W 005°26'0 0.0
2015-May-20 23:28N 36°10' W 005°26'0 0.0
2015-May-20 22:28N 36°10' W 005°26'0 0.0
2015-May-20 21:22N 36°10' W 005°26'0 0.0
2015-May-20 20:04N 36°10' W 005°26'0 0.0
2015-May-20 17:04N 36°10' W 005°26'0 0.0
2015-May-20 15:28N 36°10' W 005°26'0 0.0
2015-May-20 14:22N 36°10' W 005°26'0 0.0
2015-May-20 13:28N 36°10' W 005°26'0 0.0
2015-May-20 12:22N 36°10' W 005°26'0 0.0
2015-May-20 10:28N 36°10' W 005°26'0 0.1
2015-May-20 09:28N 36°10' W 005°26'0 0.1
2015-May-20 08:10N 36°10' W 005°25'0 0.0
2015-May-20 06:10N 36°10' W 005°25'0 0.1
2015-May-20 04:28N 36°10' W 005°25'0 0.1
2015-May-20 02:28N 36°10' W 005°25'0 0.0
2015-May-20 01:28N 36°10' W 005°25'0 0.0
2015-May-19 22:16N 36°10' W 005°25'0 0.1
2015-May-19 21:28N 36°10' W 005°25'0 0.0
2015-May-19 20:28N 36°10' W 005°25'0 0.0
2015-May-19 19:10N 36°10' W 005°25'0 0.0
2015-May-19 17:29N 36°10' W 005°25'3 3.3
2015-May-19 16:33N 36°07' W 005°23'6 5.8
2015-May-19 15:33N 36°05' W 005°17'2 2.3
2015-May-19 14:34N 36°05' W 005°14'10210.9
2015-May-19 05:15N 36°10' W 003°08'912.4
2015-May-19 04:30N 36°10' W 002°57'1212.2
2015-May-19 03:33N 36°08' W 002°42'1312.1
2015-May-19 02:30N 36°06' W 002°27'1111.9
2015-May-19 01:33N 36°04' W 002°13'1211.6
2015-May-19 00:32N 36°02' W 001°59'2211.2
2015-May-18 22:33N 35°58' W 001°32'2411.1
2015-May-18 20:24N 35°55' W 001°03'1010.9
2015-May-18 19:29N 35°53' W 000°51'1111.5
2015-May-18 18:33N 35°51' W 000°38'8 7.6
2015-May-18 17:30N 35°43' W 000°38'0 0.0
2015-May-18 16:34N 35°43' W 000°38'0 0.0
2015-May-18 15:34N 35°43' W 000°38'0 0.0
2015-May-18 14:33N 35°43' W 000°38'0 0.0
2015-May-18 13:33N 35°43' W 000°38'0 0.0
2015-May-18 00:23N 35°43' W 000°38'0 0.0
2015-May-17 23:30N 35°43' W 000°38'0 0.0
2015-May-17 22:28N 35°43' W 000°38'0 0.0
2015-May-17 21:28N 35°43' W 000°38'0 0.0
2015-May-17 20:28N 35°43' W 000°38'0 0.0
2015-May-17 19:04N 35°43' W 000°38'0 0.0
2015-May-17 17:22N 35°43' W 000°38'0 0.0
2015-May-17 16:34N 35°43' W 000°38'0 0.0
2015-May-17 15:09N 35°43' W 000°38'0 0.0
2015-May-17 12:22N 35°43' W 000°38'0 0.0
2015-May-17 09:28N 35°43' W 000°38'0 0.0
2015-May-17 06:10N 35°43' W 000°38'0 0.0
2015-May-16 01:10N 35°43' W 000°38'0 0.0
2015-May-16 00:22N 35°43' W 000°38'0 0.0
2015-May-15 23:28N 35°43' W 000°38'0 0.0
2015-May-15 21:28N 35°43' W 000°38'0 0.0
2015-May-15 19:22N 35°43' W 000°38'0 0.0
2015-May-15 18:16N 35°43' W 000°38'0 0.0
2015-May-14 23:33N 35°43' W 000°38'0 0.0
2015-May-14 22:29N 35°43' W 000°38'0 0.0
2015-May-14 21:33N 35°43' W 000°38'0 0.0
2015-May-14 20:28N 35°43' W 000°38'0 0.0
2015-May-14 19:34N 35°43' W 000°38'0 0.0
2015-May-14 18:31N 35°43' W 000°38'0 0.0
2015-May-14 17:33N 35°43' W 000°38'0 0.0
2015-May-14 16:34N 35°43' W 000°38'0 0.0
2015-May-14 15:33N 35°43' W 000°38'0 0.0
2015-May-14 14:33N 35°43' W 000°38'0 0.0
2015-May-14 13:33N 35°43' W 000°38'0 0.0
2015-May-14 12:33N 35°43' W 000°38'0 0.0
2015-May-14 11:34N 35°43' W 000°38'0 0.0
2015-May-14 10:33N 35°43' W 000°38'0 0.0
2015-May-14 09:04N 35°43' W 000°38'0 0.0
2015-May-14 07:34N 35°43' W 000°38'0 0.0
2015-May-14 06:33N 35°43' W 000°38'0 0.0
2015-May-14 05:34N 35°43' W 000°38'0 0.0
2015-May-14 04:34N 35°43' W 000°38'0 0.0
2015-May-14 03:33N 35°43' W 000°38'0 0.0
2015-May-14 02:30N 35°43' W 000°38'0 0.0
2015-May-14 01:30N 35°43' W 000°38'0 0.0
2015-May-14 00:34N 35°43' W 000°38'0 0.0
2015-May-13 23:33N 35°43' W 000°38'0 0.0
2015-May-13 22:33N 35°43' W 000°38'0 0.0
2015-May-13 21:30N 35°43' W 000°38'0 0.0
2015-May-13 20:34N 35°43' W 000°38'0 0.0
2015-May-13 19:33N 35°43' W 000°38'0 0.0
2015-May-13 18:33N 35°43' W 000°38'0 0.0
2015-May-13 17:33N 35°43' W 000°38'0 0.0
2015-May-13 16:33N 35°43' W 000°38'0 0.0
2015-May-13 15:34N 35°43' W 000°38'0 0.0
2015-May-13 14:33N 35°43' W 000°38'0 0.0
2015-May-13 13:30N 35°43' W 000°38'0 0.0
2015-May-13 12:28N 35°43' W 000°38'0 0.0
2015-May-13 11:34N 35°43' W 000°38'0 0.0
2015-May-13 10:33N 35°43' W 000°38'  

Dump ship's entire track history